createdAt,value
2022-12-11T00:00:02.481Z,-7.82
2022-12-11T00:01:02.463Z,-7.82
2022-12-11T00:02:08.399Z,-7.82
2022-12-11T00:03:14.177Z,-7.83
2022-12-11T00:04:08.486Z,-7.84
2022-12-11T00:05:14.211Z,-7.82
2022-12-11T00:06:14.431Z,-7.83
2022-12-11T00:07:14.259Z,-7.83
2022-12-11T00:08:14.335Z,-7.83
2022-12-11T00:09:14.218Z,-7.83
2022-12-11T00:10:14.186Z,-7.81
2022-12-11T00:11:14.130Z,-7.82
2022-12-11T00:12:14.132Z,-7.81
2022-12-11T00:13:14.076Z,-7.82
2022-12-11T00:14:14.201Z,-7.82
2022-12-11T00:15:14.044Z,-7.81
2022-12-11T00:16:14.043Z,-7.86
2022-12-11T00:17:13.930Z,-7.84
2022-12-11T00:18:14.093Z,-7.84
2022-12-11T00:19:13.860Z,-7.81
2022-12-11T00:20:13.860Z,-7.82
2022-12-11T00:21:13.804Z,-7.82
2022-12-11T00:22:13.828Z,-7.82
2022-12-11T00:25:08.149Z,-7.81
2022-12-11T00:26:07.731Z,-7.81
2022-12-11T00:27:07.694Z,-7.79
2022-12-11T00:28:11.538Z,-7.78
2022-12-11T00:29:16.521Z,-7.79
2022-12-11T00:30:16.596Z,-7.78
2022-12-11T00:31:16.655Z,-7.79
2022-12-11T00:32:16.587Z,-7.79
2022-12-11T00:33:16.500Z,-7.80
2022-12-11T00:34:16.454Z,-7.79
2022-12-11T00:35:16.566Z,-7.80
2022-12-11T00:36:16.435Z,-7.80
2022-12-11T00:37:16.455Z,-7.79
2022-12-11T00:38:16.369Z,-7.79
2022-12-11T00:39:16.310Z,-7.81
2022-12-11T00:40:16.325Z,-7.79
2022-12-11T00:41:16.267Z,-7.80
2022-12-11T00:42:16.290Z,-7.81
2022-12-11T00:43:16.228Z,-7.79
2022-12-11T00:44:16.207Z,-7.80
2022-12-11T00:45:16.163Z,-7.81
2022-12-11T00:46:16.356Z,-7.78
2022-12-11T00:47:16.095Z,-7.79
2022-12-11T00:48:16.351Z,-7.80
2022-12-11T00:49:16.030Z,-7.80
2022-12-11T00:50:16.023Z,-7.81
2022-12-11T00:51:15.970Z,-7.81
2022-12-11T00:52:15.960Z,-7.82
2022-12-11T00:53:15.952Z,-7.81
2022-12-11T00:54:20.821Z,-7.81
2022-12-11T00:55:24.800Z,-7.81
2022-12-11T00:56:24.894Z,-7.81
2022-12-11T00:57:24.810Z,-7.81
2022-12-11T00:58:24.837Z,-7.82
2022-12-11T00:59:25.099Z,-7.81
2022-12-11T01:00:24.782Z,-7.80
2022-12-11T01:01:24.788Z,-7.78
2022-12-11T01:02:24.792Z,-7.79
2022-12-11T01:03:24.696Z,-7.79
2022-12-11T01:04:24.680Z,-7.77
2022-12-11T01:05:24.677Z,-7.78
2022-12-11T01:06:24.625Z,-7.76
2022-12-11T01:07:24.744Z,-7.76
2022-12-11T01:09:30.417Z,-7.76
2022-12-11T01:10:30.867Z,-7.72
2022-12-11T01:11:30.489Z,-7.75
2022-12-11T01:12:30.482Z,-7.71
2022-12-11T01:13:30.419Z,-7.72
2022-12-11T01:14:30.435Z,-7.69
2022-12-11T01:15:30.391Z,-7.69
2022-12-11T01:16:35.481Z,-7.71
2022-12-11T01:17:41.265Z,-7.71
2022-12-11T01:18:41.325Z,-7.69
2022-12-11T01:19:41.293Z,-7.70
2022-12-11T01:20:41.316Z,-7.70
2022-12-11T01:21:41.286Z,-7.70
2022-12-11T01:22:41.265Z,-7.69
2022-12-11T01:23:41.256Z,-7.69
2022-12-11T01:25:47.054Z,-7.65
2022-12-11T01:26:47.138Z,-7.66
2022-12-11T01:27:47.127Z,-7.68
2022-12-11T01:28:47.097Z,-7.68
2022-12-11T01:29:47.053Z,-7.66
2022-12-11T01:30:47.113Z,-7.65
2022-12-11T01:31:46.991Z,-7.66
2022-12-11T01:32:51.167Z,-7.66
2022-12-11T01:33:55.857Z,-7.68
2022-12-11T01:34:55.933Z,-7.66
2022-12-11T01:35:55.896Z,-7.65
2022-12-11T01:37:00.794Z,-7.65
2022-12-11T01:38:06.131Z,-7.67
2022-12-11T01:39:05.806Z,-7.66
2022-12-11T01:40:05.762Z,-7.65
2022-12-11T01:41:05.770Z,-7.66
2022-12-11T01:42:05.722Z,-7.66
2022-12-11T01:43:05.709Z,-7.64
2022-12-11T01:44:05.727Z,-7.64
2022-12-11T01:45:05.688Z,-7.63
2022-12-11T01:46:05.691Z,-7.63
2022-12-11T01:47:05.611Z,-7.62
2022-12-11T01:48:05.562Z,-7.62
2022-12-11T01:49:05.689Z,-7.61
2022-12-11T01:50:05.632Z,-7.63
2022-12-11T01:51:05.460Z,-7.60
2022-12-11T01:52:05.413Z,-7.61
2022-12-11T01:53:05.390Z,-7.61
2022-12-11T01:54:05.350Z,-7.60
2022-12-11T01:55:05.325Z,-7.59
2022-12-11T01:56:05.295Z,-7.61
2022-12-11T01:57:05.253Z,-7.59
2022-12-11T01:58:05.215Z,-7.59
2022-12-11T01:59:05.241Z,-7.57
2022-12-11T02:00:05.194Z,-7.59
2022-12-11T02:01:05.265Z,-7.57
2022-12-11T02:02:05.150Z,-7.57
2022-12-11T02:03:05.114Z,-7.56
2022-12-11T02:04:05.059Z,-7.56
2022-12-11T02:05:05.052Z,-7.56
2022-12-11T02:06:04.999Z,-7.56
2022-12-11T02:07:04.986Z,-7.55
2022-12-11T02:08:05.066Z,-7.56
2022-12-11T02:09:04.956Z,-7.56
2022-12-11T02:10:04.901Z,-7.57
2022-12-11T02:11:04.899Z,-7.55
2022-12-11T02:12:04.857Z,-7.57
2022-12-11T02:13:04.868Z,-7.56
2022-12-11T02:14:04.796Z,-7.55
2022-12-11T02:15:04.773Z,-7.55
2022-12-11T02:16:04.763Z,-7.55
2022-12-11T02:17:04.724Z,-7.54
2022-12-11T02:18:04.670Z,-7.54
2022-12-11T02:19:04.673Z,-7.52
2022-12-11T02:20:04.637Z,-7.53
2022-12-11T02:21:04.609Z,-7.54
2022-12-11T02:22:04.868Z,-7.53
2022-12-11T02:23:04.559Z,-7.53
2022-12-11T02:24:04.496Z,-7.52
2022-12-11T02:25:04.505Z,-7.52
2022-12-11T02:26:04.618Z,-7.52
2022-12-11T02:27:04.441Z,-7.50
2022-12-11T02:28:04.387Z,-7.52
2022-12-11T02:29:04.364Z,-7.54
2022-12-11T02:30:04.316Z,-7.55
2022-12-11T02:31:04.344Z,-7.53
2022-12-11T02:32:04.258Z,-7.52
2022-12-11T02:33:04.257Z,-7.52
2022-12-11T02:34:04.190Z,-7.56
2022-12-11T02:35:04.182Z,-7.54
2022-12-11T02:36:04.140Z,-7.55
2022-12-11T02:37:04.112Z,-7.53
2022-12-11T02:38:04.320Z,-7.54
2022-12-11T02:39:04.046Z,-7.53
2022-12-11T02:40:04.012Z,-7.52
2022-12-11T02:41:04.006Z,-7.51
2022-12-11T02:42:03.975Z,-7.49
2022-12-11T02:43:03.902Z,-7.47
2022-12-11T02:44:03.915Z,-7.49
2022-12-11T02:45:03.906Z,-7.49
2022-12-11T02:46:03.846Z,-7.51
2022-12-11T02:47:03.797Z,-7.48
2022-12-11T02:48:03.747Z,-7.46
2022-12-11T02:49:03.720Z,-7.44
2022-12-11T02:50:03.823Z,-7.44
2022-12-11T02:51:03.661Z,-7.45
2022-12-11T02:52:03.602Z,-7.44
2022-12-11T02:53:03.596Z,-7.42
2022-12-11T02:54:03.543Z,-7.42
2022-12-11T02:55:03.545Z,-7.46
2022-12-11T02:56:03.502Z,-7.44
2022-12-11T02:57:03.469Z,-7.45
2022-12-11T02:58:03.423Z,-7.44
2022-12-11T02:59:03.442Z,-7.42
2022-12-11T03:00:03.375Z,-7.44
2022-12-11T03:01:03.450Z,-7.45
2022-12-11T03:02:03.377Z,-7.45
2022-12-11T03:03:03.413Z,-7.44
2022-12-11T03:04:03.273Z,-7.44
2022-12-11T03:05:03.263Z,-7.41
2022-12-11T03:06:03.243Z,-7.44
2022-12-11T03:07:03.217Z,-7.39
2022-12-11T03:08:03.282Z,-7.40
2022-12-11T03:09:08.035Z,-7.42
2022-12-11T03:10:08.105Z,-7.44
2022-12-11T03:11:08.051Z,-7.41
2022-12-11T03:12:08.086Z,-7.42
2022-12-11T03:13:08.007Z,-7.40
2022-12-11T03:14:07.962Z,-7.41
2022-12-11T03:15:08.168Z,-7.39
2022-12-11T03:16:07.982Z,-7.40
2022-12-11T03:17:07.849Z,-7.42
2022-12-11T03:18:07.841Z,-7.39
2022-12-11T03:19:08.084Z,-7.38
2022-12-11T03:20:07.777Z,-7.40
2022-12-11T03:21:07.742Z,-7.40
2022-12-11T03:22:12.642Z,-7.40
2022-12-11T03:23:12.732Z,-7.40
2022-12-11T03:24:12.780Z,-7.39
2022-12-11T03:25:12.840Z,-7.37
2022-12-11T03:26:12.713Z,-7.40
2022-12-11T03:27:12.602Z,-7.39
2022-12-11T03:28:12.546Z,-7.39
2022-12-11T03:29:12.528Z,-7.38
2022-12-11T03:30:12.519Z,-7.38
2022-12-11T03:31:12.560Z,-7.39
2022-12-11T03:32:12.455Z,-7.38
2022-12-11T03:33:12.468Z,-7.38
2022-12-11T03:34:12.397Z,-7.36
2022-12-11T03:35:12.872Z,-7.37
2022-12-11T03:36:12.371Z,-7.37
2022-12-11T03:37:17.390Z,-7.36
2022-12-11T03:38:22.241Z,-7.38
2022-12-11T03:39:22.306Z,-7.39
2022-12-11T03:40:22.237Z,-7.39
2022-12-11T03:41:22.271Z,-7.41
2022-12-11T03:42:22.201Z,-7.44
2022-12-11T03:43:22.179Z,-7.41
2022-12-11T03:44:22.160Z,-7.42
2022-12-11T03:45:22.157Z,-7.40
2022-12-11T03:46:22.200Z,-7.42
2022-12-11T03:47:22.211Z,-7.41
2022-12-11T03:48:22.027Z,-7.41
2022-12-11T03:49:25.924Z,-7.40
2022-12-11T03:50:31.879Z,-7.42
2022-12-11T03:51:31.985Z,-7.41
2022-12-11T03:52:32.222Z,-7.41
2022-12-11T03:53:31.934Z,-7.42
2022-12-11T03:54:31.927Z,-7.42
2022-12-11T03:55:31.887Z,-7.40
2022-12-11T03:56:31.844Z,-7.41
2022-12-11T03:57:31.873Z,-7.42
2022-12-11T03:58:31.807Z,-7.41
2022-12-11T03:59:31.802Z,-7.41
2022-12-11T04:00:31.744Z,-7.40
2022-12-11T04:01:31.768Z,-7.39
2022-12-11T04:02:31.694Z,-7.39
2022-12-11T04:03:31.694Z,-7.38
2022-12-11T04:04:31.806Z,-7.37
2022-12-11T04:05:31.605Z,-7.37
2022-12-11T04:06:31.564Z,-7.35
2022-12-11T04:07:31.554Z,-7.34
2022-12-11T04:08:31.650Z,-7.37
2022-12-11T04:09:31.499Z,-7.37
2022-12-11T04:10:33.288Z,-7.37
2022-12-11T04:11:32.701Z,-7.34
2022-12-11T04:12:31.394Z,-7.35
2022-12-11T04:13:31.393Z,-7.35
2022-12-11T04:14:31.340Z,-7.32
2022-12-11T04:15:31.437Z,-7.34
2022-12-11T04:16:31.594Z,-7.31
2022-12-11T04:17:31.255Z,-7.33
2022-12-11T04:18:31.243Z,-7.34
2022-12-11T04:19:31.347Z,-7.34
2022-12-11T04:20:31.161Z,-7.31
2022-12-11T04:21:33.989Z,-7.31
2022-12-11T04:22:31.119Z,-7.35
2022-12-11T04:23:31.102Z,-7.35
2022-12-11T04:24:31.050Z,-7.36
2022-12-11T04:25:31.035Z,-7.34
2022-12-11T04:26:30.998Z,-7.34
2022-12-11T04:27:31.027Z,-7.34
2022-12-11T04:28:30.934Z,-7.34
2022-12-11T04:29:30.913Z,-7.37
2022-12-11T04:30:34.103Z,-7.33
2022-12-11T04:31:30.892Z,-7.35
2022-12-11T04:32:30.831Z,-7.34
2022-12-11T04:33:30.817Z,-7.34
2022-12-11T04:34:30.896Z,-7.33
2022-12-11T04:35:30.777Z,-7.29
2022-12-11T04:36:30.707Z,-7.32
2022-12-11T04:37:30.658Z,-7.32
2022-12-11T04:38:30.622Z,-7.33
2022-12-11T04:39:30.583Z,-7.32
2022-12-11T04:40:30.815Z,-7.33
2022-12-11T04:41:30.587Z,-7.34
2022-12-11T04:42:30.501Z,-7.39
2022-12-11T04:43:30.509Z,-7.37
2022-12-11T04:44:30.434Z,-7.38
2022-12-11T04:45:30.442Z,-7.36
2022-12-11T04:46:30.379Z,-7.37
2022-12-11T04:47:30.340Z,-7.37
2022-12-11T04:50:24.142Z,-7.37
2022-12-11T04:51:24.216Z,-7.35
2022-12-11T04:52:24.158Z,-7.33
2022-12-11T04:53:24.122Z,-7.35
2022-12-11T04:54:24.069Z,-7.33
2022-12-11T04:55:24.071Z,-7.35
2022-12-11T04:56:24.005Z,-7.33
2022-12-11T04:57:24.137Z,-7.32
2022-12-11T04:58:23.946Z,-7.34
2022-12-11T04:59:23.939Z,-7.32
2022-12-11T05:00:23.897Z,-7.33
2022-12-11T05:01:24.016Z,-7.31
2022-12-11T05:02:23.986Z,-7.35
2022-12-11T05:03:23.990Z,-7.34
2022-12-11T05:04:23.794Z,-7.35
2022-12-11T05:05:23.781Z,-7.34
2022-12-11T05:06:23.730Z,-7.35
2022-12-11T05:07:23.732Z,-7.36
2022-12-11T05:08:23.710Z,-7.35
2022-12-11T05:09:23.796Z,-7.38
2022-12-11T05:10:23.630Z,-7.37
2022-12-11T05:11:23.618Z,-7.37
2022-12-11T05:12:23.561Z,-7.34
2022-12-11T05:13:23.564Z,-7.33
2022-12-11T05:14:23.649Z,-7.36
2022-12-11T05:15:23.509Z,-7.35
2022-12-11T05:16:23.516Z,-7.34
2022-12-11T05:17:23.415Z,-7.37
2022-12-11T05:18:23.364Z,-7.34
2022-12-11T05:19:23.365Z,-7.33
2022-12-11T05:20:23.312Z,-7.33
2022-12-11T05:21:23.351Z,-7.29
2022-12-11T05:22:23.281Z,-7.30
2022-12-11T05:23:23.263Z,-7.33
2022-12-11T05:24:23.214Z,-7.26
2022-12-11T05:25:23.496Z,-7.29
2022-12-11T05:26:23.167Z,-7.30
2022-12-11T05:27:23.296Z,-7.27
2022-12-11T05:28:23.117Z,-7.31
2022-12-11T05:29:23.117Z,-7.27
2022-12-11T05:30:23.085Z,-7.27
2022-12-11T05:31:28.035Z,-7.29
2022-12-11T05:32:28.042Z,-7.29
2022-12-11T05:33:28.003Z,-7.30
2022-12-11T05:34:27.975Z,-7.30
2022-12-11T05:35:27.946Z,-7.29
2022-12-11T05:36:27.939Z,-7.30
2022-12-11T05:37:27.888Z,-7.30
2022-12-11T05:38:27.918Z,-7.31
2022-12-11T05:39:27.841Z,-7.32
2022-12-11T05:40:27.832Z,-7.32
2022-12-11T05:41:27.770Z,-7.32
2022-12-11T05:42:29.192Z,-7.30
2022-12-11T05:43:27.698Z,-7.32
2022-12-11T05:44:27.836Z,-7.29
2022-12-11T05:45:27.642Z,-7.27
2022-12-11T05:46:27.827Z,-7.30
2022-12-11T05:47:27.606Z,-7.31
2022-12-11T05:48:31.481Z,-7.29
2022-12-11T05:49:31.827Z,-7.25
2022-12-11T05:50:31.507Z,-7.24
2022-12-11T05:51:31.490Z,-7.27
2022-12-11T05:52:31.442Z,-7.26
2022-12-11T05:53:31.400Z,-7.27
2022-12-11T05:54:31.350Z,-7.24
2022-12-11T05:55:31.501Z,-7.25
2022-12-11T05:56:31.325Z,-7.25
2022-12-11T05:57:31.243Z,-7.27
2022-12-11T05:58:31.279Z,-7.29
2022-12-11T05:59:31.180Z,-7.27
2022-12-11T06:00:35.839Z,-7.32
2022-12-11T06:01:31.280Z,-7.33
2022-12-11T06:02:31.215Z,-7.32
2022-12-11T06:03:31.045Z,-7.30
2022-12-11T06:04:30.992Z,-7.32
2022-12-11T06:05:30.983Z,-7.35
2022-12-11T06:06:30.915Z,-7.34
2022-12-11T06:07:31.072Z,-7.33
2022-12-11T06:08:30.879Z,-7.34
2022-12-11T06:09:30.909Z,-7.35
2022-12-11T06:10:30.804Z,-7.32
2022-12-11T06:11:30.783Z,-7.31
2022-12-11T06:12:30.743Z,-7.32
2022-12-11T06:13:30.892Z,-7.33
2022-12-11T06:14:30.699Z,-7.33
2022-12-11T06:15:30.691Z,-7.33
2022-12-11T06:16:30.703Z,-7.32
2022-12-11T06:17:31.108Z,-7.34
2022-12-11T06:18:30.576Z,-7.36
2022-12-11T06:19:35.102Z,-7.36
2022-12-11T06:20:30.526Z,-7.35
2022-12-11T06:21:30.570Z,-7.36
2022-12-11T06:22:30.476Z,-7.35
2022-12-11T06:23:35.320Z,-7.34
2022-12-11T06:24:35.566Z,-7.38
2022-12-11T06:25:35.384Z,-7.37
2022-12-11T06:26:35.348Z,-7.40
2022-12-11T06:27:35.322Z,-7.38
2022-12-11T06:28:35.310Z,-7.39
2022-12-11T06:29:35.270Z,-7.39
2022-12-11T06:30:39.130Z,-7.39
2022-12-11T06:31:35.264Z,-7.39
2022-12-11T06:32:35.194Z,-7.46
2022-12-11T06:33:35.140Z,-7.59
2022-12-11T06:34:40.029Z,-7.52
2022-12-11T06:35:42.048Z,-7.53
2022-12-11T06:36:40.041Z,-7.56
2022-12-11T06:37:40.297Z,-7.67
2022-12-11T06:38:39.972Z,-7.62
2022-12-11T06:39:40.413Z,-7.61
2022-12-11T06:40:39.927Z,-7.66
2022-12-11T06:41:39.913Z,-7.65
2022-12-11T06:42:39.864Z,-7.67
2022-12-11T06:43:39.835Z,-7.67
2022-12-11T06:44:39.779Z,-7.68
2022-12-11T06:45:39.788Z,-7.71
2022-12-11T06:46:39.734Z,-7.72
2022-12-11T06:47:39.756Z,-7.71
2022-12-11T06:48:39.695Z,-7.72
2022-12-11T06:49:39.657Z,-7.69
2022-12-11T06:50:39.635Z,-7.69
2022-12-11T06:51:39.612Z,-7.69
2022-12-11T06:52:39.574Z,-7.69
2022-12-11T06:53:44.459Z,-7.67
2022-12-11T06:54:44.510Z,-7.68
2022-12-11T06:55:44.467Z,-7.70
2022-12-11T06:56:44.464Z,-7.78
2022-12-11T06:57:44.436Z,-7.80
2022-12-11T06:58:44.412Z,-7.84
2022-12-11T06:59:44.479Z,-7.90
2022-12-11T07:00:44.416Z,-7.93
2022-12-11T07:01:44.313Z,-8.06
2022-12-11T07:02:44.310Z,-8.13
2022-12-11T07:03:44.258Z,-8.19
2022-12-11T07:04:44.273Z,-8.25
2022-12-11T07:05:44.208Z,-8.23
2022-12-11T07:06:44.230Z,-8.22
2022-12-11T07:07:44.176Z,-8.26
2022-12-11T07:08:44.124Z,-8.25
2022-12-11T07:09:44.096Z,-8.25
2022-12-11T07:10:44.043Z,-8.24
2022-12-11T07:11:44.302Z,-8.24
2022-12-11T07:12:43.982Z,-8.23
2022-12-11T07:13:43.927Z,-8.23
2022-12-11T07:14:43.921Z,-8.25
2022-12-11T07:15:43.879Z,-8.23
2022-12-11T07:16:50.088Z,-8.23
2022-12-11T07:17:49.817Z,-8.24
2022-12-11T07:18:49.797Z,-8.23
2022-12-11T07:19:49.771Z,-8.23
2022-12-11T07:20:49.706Z,-8.25
2022-12-11T07:21:49.682Z,-8.25
2022-12-11T07:22:49.957Z,-8.30
2022-12-11T07:23:49.698Z,-8.33
2022-12-11T07:24:49.648Z,-8.34
2022-12-11T07:25:55.497Z,-8.36
2022-12-11T07:26:55.570Z,-8.35
2022-12-11T07:27:55.574Z,-8.35
2022-12-11T07:28:55.523Z,-8.34
2022-12-11T07:29:55.487Z,-8.35
2022-12-11T07:30:55.467Z,-8.31
2022-12-11T07:31:55.573Z,-8.31
2022-12-11T07:32:55.494Z,-8.29
2022-12-11T07:33:55.392Z,-8.27
2022-12-11T07:34:55.372Z,-8.31
2022-12-11T07:35:55.322Z,-8.31
2022-12-11T07:36:55.323Z,-8.30
2022-12-11T07:37:55.258Z,-8.30
2022-12-11T07:38:55.246Z,-8.30
2022-12-11T07:39:55.196Z,-8.29
2022-12-11T07:40:55.472Z,-8.30
2022-12-11T07:41:55.156Z,-8.34
2022-12-11T07:42:55.147Z,-8.34
2022-12-11T07:43:55.509Z,-8.34
2022-12-11T07:44:55.093Z,-8.36
2022-12-11T07:45:55.140Z,-8.37
2022-12-11T07:46:55.027Z,-8.38
2022-12-11T07:47:54.958Z,-8.39
2022-12-11T07:48:54.944Z,-8.42
2022-12-11T07:49:54.883Z,-8.44
2022-12-11T07:50:54.895Z,-8.45
2022-12-11T07:51:54.849Z,-8.46
2022-12-11T07:52:54.819Z,-8.49
2022-12-11T07:53:54.790Z,-8.53
2022-12-11T07:54:54.780Z,-8.52
2022-12-11T07:55:54.719Z,-8.52
2022-12-11T07:56:54.714Z,-8.53
2022-12-11T07:57:54.805Z,-8.53
2022-12-11T07:58:54.658Z,-8.51
2022-12-11T07:59:54.636Z,-8.53
2022-12-11T08:00:54.645Z,-8.53
2022-12-11T08:01:54.655Z,-8.50
2022-12-11T08:02:54.621Z,-8.51
2022-12-11T08:03:54.570Z,-8.54
2022-12-11T08:04:54.525Z,-8.57
2022-12-11T08:05:54.462Z,-8.61
2022-12-11T08:08:48.345Z,-8.61
2022-12-11T08:09:48.374Z,-8.64
2022-12-11T08:10:48.351Z,-8.69
2022-12-11T08:11:48.309Z,-8.70
2022-12-11T08:12:48.299Z,-8.69
2022-12-11T08:13:48.391Z,-8.74
2022-12-11T08:14:48.251Z,-8.79
2022-12-11T08:15:48.355Z,-8.80
2022-12-11T08:16:48.306Z,-8.81
2022-12-11T08:17:48.171Z,-8.81
2022-12-11T08:18:48.177Z,-8.83
2022-12-11T08:19:48.136Z,-8.84
2022-12-11T08:21:56.123Z,-8.83
2022-12-11T08:22:59.044Z,-8.84
2022-12-11T08:23:56.047Z,-8.85
2022-12-11T08:24:56.034Z,-8.85
2022-12-11T08:25:55.986Z,-8.86
2022-12-11T08:26:56.382Z,-8.86
2022-12-11T08:27:55.998Z,-8.87
2022-12-11T08:28:55.913Z,-8.88
2022-12-11T08:29:55.885Z,-8.88
2022-12-11T08:30:55.906Z,-8.86
2022-12-11T08:31:55.818Z,-8.87
2022-12-11T08:32:55.822Z,-8.87
2022-12-11T08:33:55.820Z,-8.86
2022-12-11T08:34:56.053Z,-8.85
2022-12-11T08:35:55.740Z,-8.84
2022-12-11T08:36:55.703Z,-8.81
2022-12-11T08:37:55.659Z,-8.81
2022-12-11T08:38:55.657Z,-8.81
2022-12-11T08:39:55.865Z,-8.84
2022-12-11T08:40:55.580Z,-8.83
2022-12-11T08:41:55.591Z,-8.85
2022-12-11T08:42:55.567Z,-8.83
2022-12-11T08:43:55.576Z,-8.82
2022-12-11T08:44:55.510Z,-8.83
2022-12-11T08:45:55.678Z,-8.83
2022-12-11T08:46:59.351Z,-8.81
2022-12-11T08:47:59.464Z,-8.82
2022-12-11T08:48:59.405Z,-8.83
2022-12-11T08:49:59.370Z,-8.83
2022-12-11T08:50:59.593Z,-8.85
2022-12-11T08:51:59.331Z,-8.86
2022-12-11T08:52:59.291Z,-8.86
2022-12-11T08:53:59.276Z,-8.86
2022-12-11T08:54:59.234Z,-8.88
2022-12-11T08:55:59.364Z,-8.88
2022-12-11T08:56:59.306Z,-8.88
2022-12-11T08:57:59.150Z,-8.88
2022-12-11T08:58:59.138Z,-8.90
2022-12-11T08:59:59.112Z,-8.93
2022-12-11T09:00:59.186Z,-8.93
2022-12-11T09:01:59.041Z,-8.96
2022-12-11T09:02:59.140Z,-8.96
2022-12-11T09:03:59.001Z,-8.97
2022-12-11T09:04:58.933Z,-8.96
2022-12-11T09:05:58.910Z,-8.98
2022-12-11T09:06:58.985Z,-9.01
2022-12-11T09:07:58.912Z,-9.04
2022-12-11T09:08:59.048Z,-9.05
2022-12-11T09:09:58.769Z,-9.07
2022-12-11T09:10:59.118Z,-9.07
2022-12-11T09:11:58.718Z,-9.05
2022-12-11T09:12:58.670Z,-9.05
2022-12-11T09:14:03.519Z,-9.05
2022-12-11T09:14:58.622Z,-9.04
2022-12-11T09:15:58.633Z,-9.01
2022-12-11T09:16:58.553Z,-9.02
2022-12-11T09:17:58.581Z,-9.03
2022-12-11T09:18:58.492Z,-9.02
2022-12-11T09:20:04.359Z,-9.02
2022-12-11T09:21:04.429Z,-9.03
2022-12-11T09:22:04.393Z,-9.03
2022-12-11T09:23:10.266Z,-9.03
2022-12-11T09:24:10.374Z,-9.01
2022-12-11T09:25:10.756Z,-9.02
2022-12-11T09:26:10.270Z,-9.07
2022-12-11T09:27:10.272Z,-9.07
2022-12-11T09:28:10.368Z,-9.09
2022-12-11T09:29:10.214Z,-9.10
2022-12-11T09:30:10.192Z,-9.10
2022-12-11T09:31:10.331Z,-9.08
2022-12-11T09:32:10.151Z,-9.07
2022-12-11T09:33:10.090Z,-9.07
2022-12-11T09:34:10.045Z,-9.08
2022-12-11T09:35:10.500Z,-9.10
2022-12-11T09:36:09.996Z,-9.10
2022-12-11T09:37:09.961Z,-9.10
2022-12-11T09:38:09.937Z,-9.10
2022-12-11T09:39:09.920Z,-9.09
2022-12-11T09:40:09.895Z,-9.07
2022-12-11T09:41:09.831Z,-9.09
2022-12-11T09:42:09.825Z,-9.05
2022-12-11T09:43:09.794Z,-9.03
2022-12-11T09:44:09.753Z,-9.03
2022-12-11T09:45:10.087Z,-9.02
2022-12-11T09:46:09.809Z,-9.01
2022-12-11T09:47:09.656Z,-8.99
2022-12-11T09:48:09.643Z,-9.00
2022-12-11T09:49:09.717Z,-9.02
2022-12-11T09:50:09.581Z,-9.02
2022-12-11T09:51:09.509Z,-9.03
2022-12-11T09:52:09.512Z,-9.02
2022-12-11T09:53:09.455Z,-9.03
2022-12-11T09:54:09.451Z,-9.07
2022-12-11T09:55:10.196Z,-9.08
2022-12-11T09:56:09.400Z,-9.10
2022-12-11T09:57:09.337Z,-9.09
2022-12-11T09:58:09.311Z,-9.08
2022-12-11T09:59:09.282Z,-9.08
2022-12-11T10:00:14.411Z,-9.09
2022-12-11T10:01:14.243Z,-9.05
2022-12-11T10:02:14.185Z,-9.07
2022-12-11T10:03:14.155Z,-9.07
2022-12-11T10:04:14.088Z,-9.07
2022-12-11T10:05:14.225Z,-9.08
2022-12-11T10:06:14.036Z,-9.08
2022-12-11T10:07:14.005Z,-9.12
2022-12-11T10:08:14.029Z,-9.12
2022-12-11T10:09:13.933Z,-9.13
2022-12-11T10:10:13.866Z,-9.13
2022-12-11T10:11:14.136Z,-9.11
2022-12-11T10:12:13.822Z,-9.09
2022-12-11T10:13:13.810Z,-9.08
2022-12-11T10:14:13.736Z,-9.07
2022-12-11T10:15:14.191Z,-9.07
2022-12-11T10:16:13.770Z,-9.08
2022-12-11T10:17:13.665Z,-9.09
2022-12-11T10:18:13.907Z,-9.11
2022-12-11T10:19:18.494Z,-9.12
2022-12-11T10:20:22.464Z,-9.12
2022-12-11T10:21:22.679Z,-9.11
2022-12-11T10:22:22.525Z,-9.13
2022-12-11T10:23:22.494Z,-9.13
2022-12-11T10:24:42.191Z,-9.12
2022-12-11T10:25:22.411Z,-9.11
2022-12-11T10:26:22.383Z,-9.11
2022-12-11T10:27:22.350Z,-9.09
2022-12-11T10:28:22.306Z,-9.07
2022-12-11T10:29:22.556Z,-9.07
2022-12-11T10:30:22.254Z,-9.03
2022-12-11T10:31:22.262Z,-9.03
2022-12-11T10:32:22.315Z,-9.01
2022-12-11T10:33:22.156Z,-8.99
2022-12-11T10:34:22.108Z,-8.98
2022-12-11T10:35:22.229Z,-8.98
2022-12-11T10:36:22.060Z,-8.95
2022-12-11T10:37:22.055Z,-8.92
2022-12-11T10:38:22.400Z,-8.89
2022-12-11T10:39:21.984Z,-8.87
2022-12-11T10:40:21.925Z,-8.85
2022-12-11T10:41:21.984Z,-8.83
2022-12-11T10:42:21.896Z,-8.82
2022-12-11T10:43:21.994Z,-8.80
2022-12-11T10:44:21.817Z,-8.79
2022-12-11T10:45:21.823Z,-8.79
2022-12-11T10:46:21.824Z,-8.79
2022-12-11T10:47:21.766Z,-8.77
2022-12-11T10:48:21.716Z,-8.75
2022-12-11T10:49:21.698Z,-8.73
2022-12-11T10:50:21.631Z,-8.72
2022-12-11T10:51:21.618Z,-8.71
2022-12-11T10:52:21.582Z,-8.70
2022-12-11T10:53:21.598Z,-8.70
2022-12-11T10:54:21.558Z,-8.70
2022-12-11T10:55:21.520Z,-8.69
2022-12-11T10:56:21.473Z,-8.67
2022-12-11T10:57:21.477Z,-8.66
2022-12-11T10:58:21.436Z,-8.67
2022-12-11T10:59:24.121Z,-8.65
2022-12-11T11:00:21.370Z,-8.65
2022-12-11T11:01:21.389Z,-8.65
2022-12-11T11:02:21.374Z,-8.64
2022-12-11T11:03:25.197Z,-8.64
2022-12-11T11:04:25.297Z,-8.65
2022-12-11T11:05:25.206Z,-8.64
2022-12-11T11:06:25.226Z,-8.61
2022-12-11T11:07:25.172Z,-8.61
2022-12-11T11:08:25.373Z,-8.61
2022-12-11T11:09:25.096Z,-8.59
2022-12-11T11:10:25.098Z,-8.59
2022-12-11T11:11:25.056Z,-8.57
2022-12-11T11:12:30.951Z,-8.58
2022-12-11T11:13:35.954Z,-8.56
2022-12-11T11:14:36.025Z,-8.55
2022-12-11T11:15:35.934Z,-8.55
2022-12-11T11:16:35.914Z,-8.55
2022-12-11T11:17:40.013Z,-8.56
2022-12-11T11:18:35.849Z,-8.55
2022-12-11T11:19:35.797Z,-8.55
2022-12-11T11:20:35.781Z,-8.54
2022-12-11T11:21:35.872Z,-8.53
2022-12-11T11:22:39.636Z,-8.51
2022-12-11T11:23:44.294Z,-8.52
2022-12-11T11:24:39.771Z,-8.50
2022-12-11T11:25:39.625Z,-8.49
2022-12-11T11:27:11.758Z,-8.48
2022-12-11T11:27:39.560Z,-8.49
2022-12-11T11:28:39.489Z,-8.48
2022-12-11T11:29:39.489Z,-8.49
2022-12-11T11:30:39.449Z,-8.48
2022-12-11T11:31:39.482Z,-8.46
2022-12-11T11:32:39.653Z,-8.46
2022-12-11T11:33:39.388Z,-8.48
2022-12-11T11:34:39.339Z,-8.46
2022-12-11T11:35:45.501Z,-8.49
2022-12-11T11:36:39.315Z,-8.49
2022-12-11T11:37:39.287Z,-8.49
2022-12-11T11:38:39.528Z,-8.48
2022-12-11T11:39:39.239Z,-8.49
2022-12-11T11:40:39.186Z,-8.50
2022-12-11T11:41:39.177Z,-8.48
2022-12-11T11:42:39.127Z,-8.45
2022-12-11T11:43:39.481Z,-8.45
2022-12-11T11:44:39.093Z,-8.45
2022-12-11T11:45:39.065Z,-8.44
2022-12-11T11:46:39.109Z,-8.42
2022-12-11T11:47:39.000Z,-8.42
2022-12-11T11:48:38.961Z,-8.42
2022-12-11T11:49:38.968Z,-8.42
2022-12-11T11:50:39.212Z,-8.43
2022-12-11T11:51:38.907Z,-8.41
2022-12-11T11:52:38.863Z,-8.42
2022-12-11T11:53:38.858Z,-8.41
2022-12-11T11:54:38.824Z,-8.40
2022-12-11T11:55:38.811Z,-8.41
2022-12-11T11:56:38.940Z,-8.38
2022-12-11T11:57:42.928Z,-8.37
2022-12-11T11:58:42.722Z,-8.36
2022-12-11T11:59:42.694Z,-8.39
2022-12-11T12:00:42.675Z,-8.38
2022-12-11T12:01:42.911Z,-8.39
2022-12-11T12:02:42.668Z,-8.38
2022-12-11T12:03:42.545Z,-8.38
2022-12-11T12:04:42.521Z,-8.36
2022-12-11T12:05:42.500Z,-8.35
2022-12-11T12:06:47.411Z,-8.36
2022-12-11T12:07:42.513Z,-8.36
2022-12-11T12:08:42.400Z,-8.35
2022-12-11T12:09:42.420Z,-8.35
2022-12-11T12:10:42.317Z,-8.33
2022-12-11T12:11:42.246Z,-8.34
2022-12-11T12:12:42.228Z,-8.31
2022-12-11T12:14:52.672Z,-8.33
2022-12-11T12:15:47.135Z,-8.34
2022-12-11T12:16:53.359Z,-8.35
2022-12-11T12:17:50.531Z,-8.34
2022-12-11T12:18:47.324Z,-8.34
2022-12-11T12:19:47.014Z,-8.35
2022-12-11T12:20:47.095Z,-8.37
2022-12-11T12:21:46.951Z,-8.37
2022-12-11T12:22:46.909Z,-8.36
2022-12-11T12:23:46.904Z,-8.36
2022-12-11T12:24:46.853Z,-8.38
2022-12-11T12:25:46.840Z,-8.39
2022-12-11T12:26:47.423Z,-8.39
2022-12-11T12:27:52.746Z,-8.37
2022-12-11T12:28:46.731Z,-8.38
2022-12-11T12:29:47.009Z,-8.39
2022-12-11T12:30:46.666Z,-8.39
2022-12-11T12:33:40.690Z,-8.38
2022-12-11T12:34:40.558Z,-8.38
2022-12-11T12:35:40.558Z,-8.37
2022-12-11T12:36:40.521Z,-8.39
2022-12-11T12:37:40.491Z,-8.38
2022-12-11T12:38:40.453Z,-8.40
2022-12-11T12:39:40.440Z,-8.42
2022-12-11T12:40:40.434Z,-8.41
2022-12-11T12:41:40.331Z,-8.42
2022-12-11T12:42:40.293Z,-8.41
2022-12-11T12:43:40.351Z,-8.42
2022-12-11T12:44:40.223Z,-8.41
2022-12-11T12:45:40.455Z,-8.41
2022-12-11T12:46:40.187Z,-8.41
2022-12-11T12:47:48.869Z,-8.40
2022-12-11T12:48:45.125Z,-8.40
2022-12-11T12:49:45.065Z,-8.40
2022-12-11T12:50:45.298Z,-8.41
2022-12-11T12:51:45.047Z,-8.40
2022-12-11T12:52:45.035Z,-8.40
2022-12-11T12:53:44.993Z,-8.40
2022-12-11T12:54:44.989Z,-8.39
2022-12-11T12:55:44.938Z,-8.40
2022-12-11T12:56:45.225Z,-8.39
2022-12-11T12:57:44.905Z,-8.39
2022-12-11T12:58:44.889Z,-8.40
2022-12-11T12:59:44.891Z,-8.41
2022-12-11T13:00:44.920Z,-8.42
2022-12-11T13:01:45.146Z,-8.42
2022-12-11T13:02:44.814Z,-8.41
2022-12-11T13:03:44.756Z,-8.40
2022-12-11T13:04:55.992Z,-8.39
2022-12-11T13:05:44.716Z,-8.38
2022-12-11T13:06:44.710Z,-8.39